createdAt,value
2023-01-26T00:01:19.612Z,47.45
2023-01-26T00:03:46.928Z,38.25
2023-01-26T00:06:16.579Z,42.95
2023-01-26T00:08:45.213Z,45.83
2023-01-26T00:11:14.001Z,39.22
2023-01-26T00:13:40.862Z,43.15
2023-01-26T00:16:12.675Z,49.00
2023-01-26T00:18:40.485Z,43.33
2023-01-26T00:21:14.670Z,47.17
2023-01-26T00:23:41.473Z,36.60
2023-01-26T00:26:13.325Z,38.40
2023-01-26T00:28:40.820Z,46.55
2023-01-26T00:31:14.121Z,48.70
2023-01-26T00:33:40.723Z,41.58
2023-01-26T00:36:10.264Z,43.40
2023-01-26T00:38:37.215Z,45.08
2023-01-26T00:41:03.829Z,49.78
2023-01-26T00:43:34.298Z,40.22
2023-01-26T00:46:04.054Z,44.15
2023-01-26T00:48:36.058Z,42.83
2023-01-26T00:51:02.483Z,47.65
2023-01-26T00:53:29.046Z,35.65
2023-01-26T00:56:05.497Z,41.75
2023-01-26T00:58:40.899Z,39.22
2023-01-26T01:01:08.660Z,41.83
2023-01-26T01:03:35.355Z,40.25
2023-01-26T01:06:04.849Z,36.65
2023-01-26T01:08:31.642Z,47.40
2023-01-26T01:11:08.649Z,48.45
2023-01-26T01:13:35.715Z,42.60
2023-01-26T01:16:09.005Z,38.35
2023-01-26T01:18:39.596Z,41.25
2023-01-26T01:21:20.825Z,44.42
2023-01-26T01:23:56.512Z,36.25
2023-01-26T01:26:23.225Z,40.60
2023-01-26T01:28:58.870Z,47.70
2023-01-26T01:31:33.722Z,41.53
2023-01-26T01:34:03.477Z,37.40
2023-01-26T01:36:33.391Z,45.08
2023-01-26T01:39:02.493Z,50.95
2023-01-26T01:41:43.739Z,36.67
2023-01-26T01:44:14.189Z,43.90
2023-01-26T01:46:58.754Z,47.60
2023-01-26T01:49:34.575Z,44.63
2023-01-26T01:52:15.238Z,44.53
2023-01-26T01:54:55.801Z,32.80
2023-01-26T01:57:44.983Z,34.70
2023-01-26T02:00:22.039Z,44.13
2023-01-26T02:03:21.062Z,45.10
2023-01-26T02:06:24.780Z,42.03
2023-01-26T02:08:55.708Z,42.75
2023-01-26T02:11:46.024Z,46.10
2023-01-26T02:14:17.138Z,41.20
2023-01-26T02:16:43.760Z,42.13
2023-01-26T02:19:24.802Z,47.38
2023-01-26T02:21:54.297Z,41.20
2023-01-26T02:24:29.717Z,43.42
2023-01-26T02:26:57.123Z,43.63
2023-01-26T02:29:25.929Z,40.50
2023-01-26T02:31:53.902Z,51.35
2023-01-26T02:34:20.509Z,42.72
2023-01-26T02:37:00.039Z,41.10
2023-01-26T02:39:52.687Z,45.47
2023-01-26T02:42:38.011Z,48.22
2023-01-26T02:45:08.800Z,43.72
2023-01-26T02:47:37.760Z,43.38
2023-01-26T02:50:09.222Z,56.05
2023-01-26T02:52:36.013Z,43.42
2023-01-26T02:55:21.255Z,42.28
2023-01-26T02:57:49.356Z,50.20
2023-01-26T03:00:17.911Z,45.28
2023-01-26T03:02:45.592Z,47.80
2023-01-26T03:05:14.118Z,42.90
2023-01-26T03:07:46.522Z,33.90
2023-01-26T03:12:48.821Z,35.13
2023-01-26T03:15:34.475Z,33.05
2023-01-26T03:18:24.974Z,38.20
2023-01-26T03:21:10.211Z,34.38
2023-01-26T03:23:58.760Z,37.88
2023-01-26T03:26:46.485Z,36.67
2023-01-26T03:29:12.893Z,35.92
2023-01-26T03:31:41.628Z,34.60
2023-01-26T03:34:08.061Z,33.53
2023-01-26T03:36:34.482Z,37.40
2023-01-26T03:39:00.891Z,30.17
2023-01-26T03:41:46.489Z,40.53
2023-01-26T03:44:34.912Z,40.92
2023-01-26T03:47:20.841Z,41.75
2023-01-26T03:50:06.138Z,46.20
2023-01-26T03:52:51.520Z,43.97
2023-01-26T03:55:36.860Z,35.20
2023-01-26T03:58:14.502Z,31.55
2023-01-26T04:00:46.509Z,35.40
2023-01-26T04:03:34.910Z,30.92
2023-01-26T04:06:19.828Z,38.20
2023-01-26T04:08:49.262Z,32.10
2023-01-26T04:11:18.380Z,32.45
2023-01-26T04:14:09.095Z,32.05
2023-01-26T04:16:57.223Z,27.98
2023-01-26T04:19:50.812Z,35.20
2023-01-26T04:22:17.362Z,28.30
2023-01-26T04:24:43.864Z,26.58
2023-01-26T04:27:12.467Z,30.15
2023-01-26T04:29:39.086Z,26.83
2023-01-26T04:32:05.598Z,29.13
2023-01-26T04:34:32.139Z,36.70
2023-01-26T04:36:58.543Z,31.08
2023-01-26T04:39:25.005Z,29.33
2023-01-26T04:41:54.536Z,33.10
2023-01-26T04:44:26.387Z,30.20
2023-01-26T04:46:52.814Z,23.23
2023-01-26T04:49:19.352Z,31.05
2023-01-26T04:51:48.737Z,23.33
2023-01-26T04:54:17.573Z,29.42
2023-01-26T04:56:46.927Z,29.88
2023-01-26T04:59:16.168Z,23.55
2023-01-26T05:01:43.077Z,26.13
2023-01-26T05:04:15.327Z,26.30
2023-01-26T05:06:46.202Z,24.65
2023-01-26T05:09:12.901Z,25.75
2023-01-26T05:11:39.834Z,23.30
2023-01-26T05:14:06.694Z,26.92
2023-01-26T05:16:35.714Z,29.15
2023-01-26T05:19:09.825Z,22.67
2023-01-26T05:21:36.447Z,20.38
2023-01-26T05:24:06.377Z,28.88
2023-01-26T05:26:32.881Z,27.73
2023-01-26T05:28:59.323Z,23.40
2023-01-26T05:31:28.373Z,24.02
2023-01-26T05:33:56.177Z,19.25
2023-01-26T05:36:27.552Z,23.70
2023-01-26T05:38:53.928Z,16.58
2023-01-26T05:41:31.862Z,25.52
2023-01-26T05:46:47.373Z,19.30
2023-01-26T05:49:13.834Z,20.63
2023-01-26T05:51:43.110Z,20.40
2023-01-26T05:54:09.678Z,17.88
2023-01-26T05:56:38.782Z,18.98
2023-01-26T05:59:05.456Z,22.30
2023-01-26T06:01:34.192Z,19.83
2023-01-26T06:04:02.934Z,17.45
2023-01-26T06:06:37.343Z,19.15
2023-01-26T06:09:03.911Z,17.75
2023-01-26T06:11:32.487Z,23.75
2023-01-26T06:14:01.273Z,15.40
2023-01-26T06:16:28.005Z,21.85
2023-01-26T06:18:54.581Z,24.13
2023-01-26T06:21:24.326Z,29.23
2023-01-26T06:23:50.843Z,25.65
2023-01-26T06:26:17.558Z,21.42
2023-01-26T06:28:44.089Z,20.13
2023-01-26T06:31:12.906Z,23.98
2023-01-26T06:33:39.587Z,19.55
2023-01-26T06:36:12.328Z,21.00
2023-01-26T06:38:39.220Z,17.13
2023-01-26T06:41:07.541Z,15.68
2023-01-26T06:43:35.351Z,17.48
2023-01-26T06:46:03.800Z,19.38
2023-01-26T06:48:31.822Z,17.90
2023-01-26T06:51:06.541Z,23.15
2023-01-26T06:53:42.431Z,14.18
2023-01-26T06:56:08.938Z,20.77
2023-01-26T06:58:35.349Z,20.40
2023-01-26T07:01:01.969Z,17.40
2023-01-26T07:03:28.530Z,18.33
2023-01-26T07:05:55.025Z,18.85
2023-01-26T07:08:21.403Z,21.80
2023-01-26T07:10:49.963Z,18.20
2023-01-26T07:13:16.435Z,19.73
2023-01-26T07:15:42.946Z,17.33
2023-01-26T07:18:11.751Z,16.77
2023-01-26T07:20:40.795Z,15.73
2023-01-26T07:23:07.207Z,16.83
2023-01-26T07:25:35.008Z,18.45
2023-01-26T07:28:01.482Z,15.75
2023-01-26T07:30:27.994Z,15.32
2023-01-26T07:33:02.735Z,16.52
2023-01-26T07:35:32.146Z,13.10
2023-01-26T07:37:59.043Z,18.88
2023-01-26T07:40:25.750Z,15.95
2023-01-26T07:42:52.177Z,19.40
2023-01-26T07:45:18.546Z,29.05
2023-01-26T07:47:45.004Z,22.35
2023-01-26T07:50:14.172Z,14.60
2023-01-26T07:52:40.778Z,14.82
2023-01-26T07:55:11.108Z,16.13
2023-01-26T07:57:37.569Z,12.88
2023-01-26T08:00:04.724Z,15.02
2023-01-26T08:02:31.674Z,14.73
2023-01-26T08:04:58.102Z,11.90
2023-01-26T08:07:31.429Z,15.02
2023-01-26T08:10:02.598Z,11.95
2023-01-26T08:12:29.374Z,10.70
2023-01-26T08:14:55.811Z,10.75
2023-01-26T08:17:22.311Z,8.30
2023-01-26T08:19:50.976Z,10.10
2023-01-26T08:22:17.673Z,13.15
2023-01-26T08:24:44.109Z,14.60
2023-01-26T08:27:10.544Z,22.27
2023-01-26T08:29:36.975Z,16.05
2023-01-26T08:32:05.023Z,13.50
2023-01-26T08:34:31.534Z,13.68
2023-01-26T08:36:58.110Z,17.42
2023-01-26T08:39:24.548Z,15.00
2023-01-26T08:41:51.092Z,14.73
2023-01-26T08:44:17.464Z,13.15
2023-01-26T08:46:46.484Z,16.33
2023-01-26T08:49:15.232Z,9.88
2023-01-26T08:51:41.703Z,10.80
2023-01-26T08:54:08.370Z,14.75
2023-01-26T08:56:37.525Z,12.50
2023-01-26T08:59:08.626Z,10.70
2023-01-26T09:01:40.082Z,12.23
2023-01-26T09:04:06.736Z,13.93
2023-01-26T09:06:33.167Z,11.73
2023-01-26T09:09:00.381Z,12.10
2023-01-26T09:11:28.219Z,10.20
2023-01-26T09:13:56.661Z,8.13
2023-01-26T09:16:24.141Z,7.88
2023-01-26T09:18:52.187Z,7.80
2023-01-26T09:21:19.232Z,10.35
2023-01-26T09:23:48.857Z,12.15
2023-01-26T09:26:15.401Z,9.10
2023-01-26T09:28:41.807Z,9.88
2023-01-26T09:31:13.231Z,11.45
2023-01-26T09:33:39.728Z,16.13
2023-01-26T09:36:10.110Z,10.55
2023-01-26T09:38:37.413Z,7.82
2023-01-26T09:41:10.977Z,10.30
2023-01-26T09:43:57.707Z,11.35
2023-01-26T09:46:29.239Z,9.15
2023-01-26T09:49:16.024Z,10.33
2023-01-26T09:52:12.747Z,9.82
2023-01-26T09:54:43.827Z,7.55
2023-01-26T09:57:37.583Z,13.98
2023-01-26T10:00:32.781Z,9.07
2023-01-26T10:03:32.809Z,14.27
2023-01-26T10:06:31.223Z,16.55
2023-01-26T10:09:23.496Z,10.32
2023-01-26T10:11:56.421Z,11.43
2023-01-26T10:14:52.060Z,10.35
2023-01-26T10:17:41.879Z,18.08
2023-01-26T10:20:23.682Z,12.85
2023-01-26T10:22:59.889Z,19.10
2023-01-26T10:25:42.260Z,9.63
2023-01-26T10:28:22.330Z,6.53
2023-01-26T10:30:51.218Z,9.00
2023-01-26T10:33:30.251Z,11.43
2023-01-26T10:35:56.829Z,7.93
2023-01-26T10:38:28.614Z,9.55
2023-01-26T10:40:58.888Z,13.27
2023-01-26T10:43:25.970Z,10.82
2023-01-26T10:45:52.462Z,10.68
2023-01-26T10:48:24.723Z,8.73
2023-01-26T10:50:51.473Z,6.60
2023-01-26T10:53:22.376Z,7.43
2023-01-26T10:56:04.413Z,5.30
2023-01-26T10:59:02.428Z,7.70
2023-01-26T11:01:28.956Z,5.43
2023-01-26T11:04:01.603Z,5.70
2023-01-26T11:06:29.605Z,5.20
2023-01-26T11:09:28.371Z,5.70
2023-01-26T11:12:01.125Z,4.38
2023-01-26T11:14:29.491Z,4.65
2023-01-26T11:17:19.454Z,5.35
2023-01-26T11:19:56.713Z,4.72
2023-01-26T11:22:36.753Z,8.00
2023-01-26T11:25:15.221Z,5.70
2023-01-26T11:27:51.320Z,4.65
2023-01-26T11:30:50.366Z,7.00
2023-01-26T11:33:23.975Z,3.90
2023-01-26T11:36:15.313Z,5.20
2023-01-26T11:38:45.726Z,5.13
2023-01-26T11:41:31.971Z,5.38
2023-01-26T11:44:14.958Z,5.35
2023-01-26T11:46:53.487Z,5.80
2023-01-26T11:49:40.925Z,5.55
2023-01-26T11:52:48.728Z,5.68
2023-01-26T11:55:24.021Z,9.57
2023-01-26T11:58:32.666Z,7.43
2023-01-26T12:01:06.685Z,9.50
2023-01-26T12:03:44.359Z,10.13
2023-01-26T12:06:42.160Z,6.47
2023-01-26T12:09:23.385Z,5.63
2023-01-26T12:12:17.100Z,10.27
2023-01-26T12:15:04.262Z,21.58
2023-01-26T12:17:44.812Z,17.33
2023-01-26T12:20:17.027Z,19.05
2023-01-26T12:23:17.030Z,25.73
2023-01-26T12:25:55.961Z,43.92
2023-01-26T12:28:44.802Z,29.13
2023-01-26T12:31:23.941Z,12.85
2023-01-26T12:33:55.002Z,9.82
2023-01-26T12:36:44.959Z,16.17
2023-01-26T12:39:46.642Z,12.00
2023-01-26T12:42:38.904Z,7.22
2023-01-26T12:45:35.391Z,6.75
2023-01-26T12:48:22.158Z,12.07
2023-01-26T12:51:00.530Z,7.63
2023-01-26T12:53:37.825Z,7.93
2023-01-26T12:56:15.264Z,7.97
2023-01-26T12:58:45.360Z,6.85
2023-01-26T13:01:15.776Z,7.72
2023-01-26T13:03:51.543Z,6.45
2023-01-26T13:06:28.035Z,10.13
2023-01-26T13:08:57.665Z,11.73
2023-01-26T13:11:41.677Z,7.55
2023-01-26T13:14:29.827Z,10.15
2023-01-26T13:16:56.567Z,8.38
2023-01-26T13:19:37.401Z,10.02
2023-01-26T13:22:06.509Z,12.38
2023-01-26T13:24:32.946Z,8.23
2023-01-26T13:26:59.797Z,14.52
2023-01-26T13:29:28.882Z,10.80
2023-01-26T13:31:57.655Z,13.38
2023-01-26T13:34:44.028Z,13.15
2023-01-26T13:37:19.074Z,16.73
2023-01-26T13:39:52.637Z,14.32
2023-01-26T13:42:27.582Z,10.88
2023-01-26T13:45:05.196Z,12.07
2023-01-26T13:47:43.776Z,13.98
2023-01-26T13:50:23.699Z,14.27
2023-01-26T13:52:50.732Z,11.15
2023-01-26T13:55:25.474Z,15.13
2023-01-26T13:58:11.779Z,19.13
2023-01-26T14:00:38.412Z,13.88
2023-01-26T14:03:07.509Z,15.95
2023-01-26T14:05:37.456Z,21.02
2023-01-26T14:08:04.322Z,14.82
2023-01-26T14:10:30.973Z,15.80
2023-01-26T14:13:03.747Z,14.02
2023-01-26T14:15:32.800Z,13.95
2023-01-26T14:18:01.901Z,14.25
2023-01-26T14:20:32.726Z,14.73
2023-01-26T14:23:13.117Z,16.20
2023-01-26T14:25:47.452Z,13.18
2023-01-26T14:28:22.094Z,20.67
2023-01-26T14:30:54.639Z,26.90
2023-01-26T14:33:24.460Z,15.52
2023-01-26T14:36:06.807Z,12.63
2023-01-26T14:38:44.631Z,13.95
2023-01-26T14:41:35.153Z,15.80
2023-01-26T14:44:04.096Z,12.32
2023-01-26T14:46:35.692Z,13.85
2023-01-26T14:49:21.334Z,62.63
2023-01-26T14:51:55.593Z,27.13
2023-01-26T14:54:31.402Z,13.98
2023-01-26T14:57:00.052Z,19.13
2023-01-26T14:59:40.808Z,9.65
2023-01-26T15:02:37.131Z,14.10
2023-01-26T15:05:18.718Z,25.08
2023-01-26T15:07:48.692Z,9.32
2023-01-26T15:10:38.178Z,16.77
2023-01-26T15:13:21.384Z,11.05
2023-01-26T15:16:05.336Z,10.13
2023-01-26T15:18:33.385Z,16.05
2023-01-26T15:21:05.903Z,11.15
2023-01-26T15:26:05.373Z,12.68
2023-01-26T15:28:32.573Z,12.57
2023-01-26T15:30:59.451Z,14.52
2023-01-26T15:33:51.889Z,11.80
2023-01-26T15:36:40.062Z,19.08
2023-01-26T15:39:13.817Z,22.00
2023-01-26T15:41:41.860Z,14.82
2023-01-26T15:44:19.403Z,17.40
2023-01-26T15:46:46.720Z,10.57
2023-01-26T15:49:14.417Z,30.05
2023-01-26T15:51:43.144Z,17.58
2023-01-26T15:54:11.152Z,15.00
2023-01-26T15:56:37.925Z,11.38
2023-01-26T15:59:04.342Z,11.60
2023-01-26T16:01:31.254Z,11.35
2023-01-26T16:03:58.112Z,18.58
2023-01-26T16:06:30.742Z,11.43
2023-01-26T16:09:01.601Z,10.88
2023-01-26T16:11:35.521Z,13.27
2023-01-26T16:14:04.601Z,14.85
2023-01-26T16:16:32.630Z,12.85
2023-01-26T16:18:59.839Z,13.20
2023-01-26T16:21:31.372Z,14.00
2023-01-26T16:24:01.035Z,13.87
2023-01-26T16:26:30.606Z,14.85
2023-01-26T16:28:58.330Z,12.25
2023-01-26T16:31:31.239Z,13.50
2023-01-26T16:33:59.046Z,11.90
2023-01-26T16:36:25.608Z,11.55
2023-01-26T16:38:52.216Z,17.52
2023-01-26T16:41:27.761Z,14.50
2023-01-26T16:44:03.535Z,13.15
2023-01-26T16:46:33.739Z,12.30
2023-01-26T16:49:00.277Z,15.00
2023-01-26T16:51:29.821Z,26.35
2023-01-26T16:53:58.949Z,18.48
2023-01-26T16:56:25.472Z,25.45
2023-01-26T16:58:52.012Z,14.43
2023-01-26T17:01:29.246Z,12.77
2023-01-26T17:03:56.383Z,15.75
2023-01-26T17:06:25.364Z,14.13
2023-01-26T17:08:52.747Z,13.88
2023-01-26T17:11:22.275Z,14.48
2023-01-26T17:13:51.696Z,14.27
2023-01-26T17:16:26.261Z,13.32
2023-01-26T17:18:53.356Z,11.18
2023-01-26T17:21:22.779Z,13.52
2023-01-26T17:23:57.351Z,14.30
2023-01-26T17:26:23.984Z,16.05
2023-01-26T17:28:54.384Z,18.42
2023-01-26T17:31:22.934Z,13.63
2023-01-26T17:33:50.635Z,17.05
2023-01-26T17:36:19.243Z,16.42
2023-01-26T17:38:47.458Z,16.60
2023-01-26T17:41:13.978Z,14.50
2023-01-26T17:43:42.489Z,12.55
2023-01-26T17:46:12.778Z,20.75
2023-01-26T17:48:44.881Z,16.58
2023-01-26T17:51:17.001Z,16.35
2023-01-26T17:53:45.036Z,17.13
2023-01-26T17:56:14.468Z,13.93
2023-01-26T17:58:41.669Z,11.65
2023-01-26T18:01:09.975Z,15.77
2023-01-26T18:03:40.593Z,17.10
2023-01-26T18:06:07.135Z,15.35
2023-01-26T18:08:36.106Z,19.33
2023-01-26T18:11:07.669Z,18.10
2023-01-26T18:13:34.845Z,16.60
2023-01-26T18:16:01.416Z,16.85
2023-01-26T18:18:29.716Z,14.35
2023-01-26T18:20:56.849Z,19.38
2023-01-26T18:23:24.494Z,15.50
2023-01-26T18:25:51.293Z,17.73
2023-01-26T18:28:17.788Z,13.30
2023-01-26T18:30:44.394Z,29.83
2023-01-26T18:33:10.895Z,21.30
2023-01-26T18:35:37.490Z,15.13
2023-01-26T18:38:08.702Z,16.73
2023-01-26T18:40:35.203Z,14.70
2023-01-26T18:43:01.653Z,17.00
2023-01-26T18:45:28.134Z,14.13
2023-01-26T18:47:54.542Z,25.02
2023-01-26T18:50:21.136Z,20.70
2023-01-26T18:52:47.606Z,16.48
2023-01-26T18:55:14.454Z,23.65
2023-01-26T18:57:41.136Z,24.45
2023-01-26T19:00:09.106Z,15.65
2023-01-26T19:02:38.638Z,19.88
2023-01-26T19:05:09.122Z,22.60
2023-01-26T19:07:35.609Z,22.33
2023-01-26T19:10:04.691Z,28.08
2023-01-26T19:12:33.524Z,36.53
2023-01-26T19:15:00.241Z,23.40
2023-01-26T19:17:26.679Z,29.27
2023-01-26T19:19:53.598Z,36.83
2023-01-26T19:22:20.096Z,25.67
2023-01-26T19:24:46.516Z,25.67
2023-01-26T19:27:16.266Z,16.52
2023-01-26T19:29:42.659Z,19.88
2023-01-26T19:32:12.215Z,17.55
2023-01-26T19:34:43.941Z,18.55
2023-01-26T19:37:12.623Z,21.00
2023-01-26T19:39:39.078Z,18.63
2023-01-26T19:42:07.899Z,20.65
2023-01-26T19:44:36.488Z,25.05
2023-01-26T19:47:02.978Z,15.02
2023-01-26T19:49:29.377Z,22.77
2023-01-26T19:51:58.325Z,30.30
2023-01-26T19:54:24.679Z,19.23
2023-01-26T19:56:52.385Z,17.02
2023-01-26T19:59:18.762Z,17.80
2023-01-26T20:01:45.261Z,18.90
2023-01-26T20:04:17.021Z,16.33
2023-01-26T20:06:43.427Z,16.95
2023-01-26T20:09:12.466Z,18.88
2023-01-26T20:11:39.075Z,17.73
2023-01-26T20:14:08.625Z,22.27
2023-01-26T20:16:35.681Z,16.08
2023-01-26T20:19:03.033Z,19.48
2023-01-26T20:21:33.236Z,21.30
2023-01-26T20:24:05.357Z,27.05
2023-01-26T20:26:34.105Z,20.35
2023-01-26T20:29:00.823Z,18.83
2023-01-26T20:31:29.624Z,17.38
2023-01-26T20:33:56.242Z,18.73
2023-01-26T20:36:25.112Z,24.40
2023-01-26T20:38:52.061Z,21.85
2023-01-26T20:41:22.401Z,24.90
2023-01-26T20:43:59.064Z,21.70
2023-01-26T20:46:31.948Z,28.33
2023-01-26T20:48:58.668Z,23.58
2023-01-26T20:51:30.487Z,23.15
2023-01-26T20:53:58.855Z,22.23
2023-01-26T20:56:30.721Z,20.75
2023-01-26T20:58:57.515Z,24.58
2023-01-26T21:01:25.515Z,22.10
2023-01-26T21:03:55.138Z,23.70
2023-01-26T21:06:23.951Z,23.90
2023-01-26T21:08:53.960Z,26.77
2023-01-26T21:11:22.588Z,30.05
2023-01-26T21:13:52.565Z,22.35
2023-01-26T21:16:21.494Z,23.25
2023-01-26T21:18:49.352Z,20.05
2023-01-26T21:21:19.143Z,29.02
2023-01-26T21:23:45.998Z,28.33
2023-01-26T21:26:19.150Z,26.30
2023-01-26T21:28:51.128Z,22.80
2023-01-26T21:31:18.581Z,25.05
2023-01-26T21:33:49.037Z,24.17
2023-01-26T21:36:20.528Z,23.83
2023-01-26T21:38:50.810Z,24.77
2023-01-26T21:41:38.120Z,28.33
2023-01-26T21:44:09.729Z,24.42
2023-01-26T21:46:36.613Z,27.60
2023-01-26T21:49:03.756Z,26.42
2023-01-26T21:51:49.345Z,30.08
2023-01-26T21:54:18.065Z,29.70
2023-01-26T21:56:47.264Z,34.30
2023-01-26T21:59:18.157Z,33.35
2023-01-26T22:01:45.665Z,25.98
2023-01-26T22:04:16.391Z,26.70
2023-01-26T22:06:44.354Z,24.80
2023-01-26T22:09:13.497Z,31.00
2023-01-26T22:11:42.474Z,40.03
2023-01-26T22:14:21.208Z,25.50
2023-01-26T22:16:50.282Z,31.15
2023-01-26T22:19:17.078Z,29.20
2023-01-26T22:21:46.351Z,40.92
2023-01-26T22:24:14.318Z,33.45
2023-01-26T22:26:41.588Z,29.30
2023-01-26T22:29:08.510Z,37.75
2023-01-26T22:31:37.098Z,31.05
2023-01-26T22:34:04.162Z,33.50
2023-01-26T22:36:33.458Z,29.70
2023-01-26T22:38:59.994Z,32.80
2023-01-26T22:41:29.174Z,39.15
2023-01-26T22:44:00.103Z,32.33
2023-01-26T22:46:28.729Z,32.63
2023-01-26T22:48:57.285Z,32.75
2023-01-26T22:51:26.948Z,41.40
2023-01-26T22:53:56.631Z,29.88
2023-01-26T22:56:23.665Z,28.73
2023-01-26T22:58:58.521Z,39.35
2023-01-26T23:01:31.170Z,34.90
2023-01-26T23:04:01.913Z,49.40
2023-01-26T23:06:28.970Z,35.90
2023-01-26T23:08:55.567Z,31.63
2023-01-26T23:11:28.626Z,28.67
2023-01-26T23:13:59.138Z,35.00
2023-01-26T23:16:26.794Z,27.92
2023-01-26T23:18:55.899Z,34.90
2023-01-26T23:21:22.684Z,33.08
2023-01-26T23:23:49.358Z,36.03
2023-01-26T23:26:16.125Z,33.40
2023-01-26T23:28:44.383Z,33.78
2023-01-26T23:31:13.263Z,35.00
2023-01-26T23:33:40.441Z,23.98
2023-01-26T23:36:09.453Z,34.40
2023-01-26T23:38:36.267Z,28.23
2023-01-26T23:41:05.312Z,31.77
2023-01-26T23:43:32.252Z,36.08
2023-01-26T23:45:58.658Z,37.05
2023-01-26T23:48:25.609Z,35.30
2023-01-26T23:51:07.047Z,25.50
2023-01-26T23:53:33.615Z,32.08
2023-01-26T23:56:04.946Z,29.83
2023-01-26T23:58:31.393Z,38.90
